Parrish, Wisconsin
Current Conditions -  °F | °C
As of 7:15 PM on Monday 22 Dec 2014 (Local Time) from KRRL Reporting Station
Light Snow Light Snow  
Wind Chill: 25°   Ceiling: 900
Heat Index: 32°   Visibility: 3mi
Dew Point: 32°   Wind: 8mph
Humidity: 97%   Direction: 100°E
Pressure: 29.73"   Gusts: NA
Location:  45.3595°N, 89.45°W
Report Text: KRRL 230115Z AUTO 10007KT 3SM -SN OVC009 00/00 A2973 RMK AO2 T00021002
Loading
Personal Weather Stations






























Interactive Weather Map New forecast layout! Learn more

10-Day Weather Forecast

Advertisements
Track Severe Weather on mobile